Latest Weather Observations for Warburton

IDW60801

Issued at 3:43 pm WST Sunday 15 September 2019 (issued every 10 minutes, with the page automatically refreshed every 10 minutes)

About weather observations | Map of weather stations | Latest weather observations for WA | Other Formats
Station Details ID: 013011 Name: WARBURTON AIRFIELD Lat: -26.13 Lon: 126.58 Height: 459.0 m
Data from the previous 72 hours. | See also: Recent months at Warburton
Date/Time
WST
Temp
°C
App
Temp
°C
Dew
Point
°C
Rel
Hum
%
Delta-T
°C
Wind Press
QNH
hPa
Press
MSL
hPa
Rain since
9am
mm
Dir  Spd
km/h
Gust
km/h
Spd
kts
Gust
kts
15/03:30pm 34.5 28.8 -13.3 4 19.3 W 13 28 7 15 1017.6 1016.0 0.0
15/03:00pm 34.1 27.2 -13.6 4 19.1 N 19 28 10 15 1017.7 1016.1 0.0
15/02:30pm 35.0 28.1 -13.0 4 19.6 N 19 26 10 14 1017.8 1016.2 0.0
15/02:00pm 34.9 28.4 -13.0 4 19.5 NNE 17 33 9 18 1017.9 1016.3 0.0
15/01:30pm 34.3 29.3 -13.5 4 19.3 NW 9 20 5 11 1018.2 1016.6 0.0
15/01:00pm 35.2 28.7 -12.8 4 19.7 NNE 17 26 9 14 1018.6 1017.1 0.0
15/12:30pm 34.1 27.6 -13.6 4 19.2 N 17 30 9 16 1019.1 1017.5 0.0
15/12:00pm 35.1 29.6 -10.1 5 19.3 NNE 13 24 7 13 1019.6 1018.0 0.0
15/11:30am 33.4 28.2 -11.3 5 18.5 NNW 11 24 6 13 1020.0 1018.4 0.0
15/11:00am 33.2 26.6 -9.2 6 18.1 NNW 19 32 10 17 1020.6 1019.1 0.0
15/10:30am 33.3 27.8 -9.1 6 18.2 NW 13 22 7 12 1020.9 1019.4 0.0
15/10:00am 32.2 27.1 -9.9 6 17.6 NW 11 24 6 13 1021.4 1019.8 0.0
15/09:30am 31.6 27.4 -8.3 7 17.1 W 7 13 4 7 1021.5 1019.9 0.0
15/09:00am 30.0 25.7 -9.5 7 16.3 NW 7 11 4 6 1021.9 1020.3 0.0
15/08:30am 28.3 24.0 -9.1 8 15.4 NNW 7 11 4 6 1022.1 1020.5 0.0
15/08:00am 27.1 22.8 -8.5 9 14.6 NNW 7 9 4 5 1022.2 1020.6 0.0
15/07:30am 23.6 20.6 -9.8 10 12.9 CALM 0 0 0 0 1022.1 1020.5 0.0
15/07:00am 18.6 15.5 -10.3 13 10.4 CALM 0 0 0 0 1022.1 1020.5 0.0
15/06:30am 14.6 11.5 -10.1 17 8.6 CALM 0 0 0 0 1021.8 1020.2 0.0
15/06:00am 12.0 8.8 -12.3 17 7.7 CALM 0 0 0 0 1021.5 1019.9 0.0
15/05:30am 11.9 8.7 -11.6 18 7.6 CALM 0 0 0 0 1021.2 1019.7 0.0
15/05:00am 11.8 6.9 -11.7 18 7.5 E 9 9 5 5 1020.9 1019.4 0.0
15/04:30am 12.6 8.3 -11.1 18 7.8 NNE 6 9 3 5 1020.9 1019.4 0.0
15/04:00am 12.4 7.5 -11.9 17 7.8 NNE 9 13 5 7 1021.0 1019.5 0.0
15/03:30am 12.5 8.9 -12.6 16 8.0 W 2 7 1 4 1020.4 1018.8 0.0
15/03:00am 12.7 9.4 -13.2 15 8.1 CALM 0 0 0 0 1020.1 1018.5 0.0
15/02:30am 12.4 9.1 -13.5 15 8.1 CALM 0 0 0 0 1020.1 1018.5 0.0
15/02:00am 13.0 9.7 -13.8 14 8.4 CALM 0 0 0 0 1020.1 1018.5 0.0
15/01:30am 13.4 8.8 -12.7 15 8.4 ESE 7 7 4 4 1020.4 1018.8 0.0
15/01:00am 13.7 9.1 -13.3 14 8.6 ESE 7 7 4 4 1020.7 1019.2 0.0
15/12:30am 14.7 10.2 -11.6 15 8.8 SSE 7 9 4 5 1020.8 1019.3 0.0
15/12:00am 15.4 10.5 -11.9 14 9.2 SSE 9 9 5 5 1021.2 1019.7 0.0
 
Date/Time
WST
Temp
°C
App
Temp
°C
Dew
Point
°C
Rel
Hum
%
Delta-T
°C
Wind Press
QNH
hPa
Press
MSL
hPa
Rain since
9am
mm
Dir  Spd
km/h
Gust
km/h
Spd
kts
Gust
kts
14/11:30pm 16.1 11.7 -12.3 13 9.6 SW 6 7 3 4 1021.2 1019.7 0.0
14/11:00pm 16.0 12.4 -12.4 13 9.5 SSE 2 6 1 3 1021.4 1019.8 0.0
14/10:30pm 16.9 13.7 -11.7 13 9.9 CALM 0 2 0 1 1021.5 1019.9 0.0
14/10:00pm 17.5 14.4 -11.2 13 10.0 CALM 0 7 0 4 1021.6 1020.0 0.0
14/09:30pm 18.5 15.4 -10.4 13 10.4 CALM 0 0 0 0 1021.6 1020.0 0.0
14/09:00pm 19.0 14.7 -11.0 12 10.7 NNE 6 6 3 3 1021.8 1020.2 0.0
14/08:30pm 19.9 15.9 -12.6 10 11.4 NNE 4 7 2 4 1021.8 1020.2 0.0
14/08:00pm 21.4 16.9 -11.4 10 12.0 NE 7 9 4 5 1021.8 1020.2 0.0
14/07:30pm 22.8 18.4 -10.4 10 12.6 NNE 7 9 4 5 1021.5 1019.9 0.0
14/07:00pm 24.9 20.7 -10.1 9 13.6 N 6 6 3 3 1021.2 1019.7 0.0
14/06:30pm 27.8 23.2 -7.9 9 14.9 NNE 9 11 5 6 1021.0 1019.5 0.0
14/06:00pm 29.3 25.1 -8.3 8 15.8 N 7 9 4 5 1020.6 1019.1 0.0
14/05:30pm 31.4 26.8 -8.5 7 17.0 NNE 9 15 5 8 1020.5 1019.0 0.0
14/05:00pm 33.0 26.9 -7.3 7 17.7 NE 17 24 9 13 1020.3 1018.7 0.0
14/04:30pm 33.5 27.7 -9.0 6 18.3 NNE 15 24 8 13 1020.2 1018.6 0.0
14/04:00pm 34.2 28.4 -8.5 6 18.6 NNE 15 26 8 14 1020.3 1018.7 0.0
14/03:30pm 33.8 27.8 -6.8 7 18.2 NNE 17 24 9 13 1020.5 1019.0 0.0
14/03:00pm 34.1 28.1 -6.5 7 18.3 NNE 17 28 9 15 1020.5 1019.0 0.0
14/02:30pm 34.4 28.6 -8.3 6 18.7 NE 15 30 8 16 1020.8 1019.3 0.0
14/02:00pm 33.5 28.2 -7.0 7 18.0 N 13 32 7 17 1021.2 1019.7 0.0
14/01:30pm 33.3 26.7 -7.1 7 17.9 NE 20 32 11 17 1021.7 1020.1 0.0
14/01:00pm 33.8 26.5 -6.8 7 18.1 NNE 24 37 13 20 1022.0 1020.4 0.0
14/12:30pm 33.3 26.9 -7.1 7 17.9 NNE 19 39 10 21 1022.6 1021.1 0.0
14/12:26pm 34.1 28.5 -6.5 7 18.3 N 15 39 8 21 1022.4 1020.9 0.0
14/12:00pm 32.9 26.8 -7.4 7 17.7 NNE 17 35 9 19 1023.1 1021.6 0.0
14/11:30am 32.5 25.5 -7.7 7 17.5 N 22 33 12 18 1023.8 1022.2 0.0
14/11:00am 32.4 25.3 -7.8 7 17.4 N 22 33 12 18 1024.3 1022.7 0.0
14/10:30am 32.5 25.1 -7.7 7 17.5 N 24 35 13 19 1024.7 1023.2 0.0
14/10:00am 31.8 25.5 -10.2 6 17.4 N 17 28 9 15 1025.1 1023.6 0.0
14/09:30am 31.3 25.0 -10.5 6 17.2 NNE 17 28 9 15 1025.4 1023.9 0.0
14/09:00am 29.8 25.5 -11.6 6 16.4 NNW 6 11 3 6 1025.5 1024.0 0.0
14/08:30am 28.6 23.0 -10.5 7 15.7 NNE 13 17 7 9 1025.7 1024.2 0.0
14/08:00am 27.3 21.9 -8.3 9 14.6 NE 13 19 7 10 1025.7 1024.2 0.0
14/07:30am 25.6 20.2 -8.2 10 13.7 NE 13 17 7 9 1025.5 1024.0 0.0
14/07:16am 24.2 20.9 -8.1 11 13.0 ESE 2 11 1 6 1025.5 1024.0 0.0
14/07:00am 19.1 16.1 -9.9 13 10.6 CALM 0 0 0 0 1025.3 1023.8 0.0
14/06:30am 15.6 12.5 -10.1 16 9.0 CALM 0 0 0 0 1025.0 1023.5 0.0
14/06:00am 12.5 9.4 -10.5 19 7.6 CALM 0 0 0 0 1024.7 1023.2 0.0
14/05:30am 12.6 8.1 -11.1 18 7.8 SE 7 15 4 8 1024.5 1023.0 0.0
14/05:00am 12.8 8.0 -10.9 18 7.8 ESE 9 15 5 8 1024.3 1022.7 0.0
14/04:30am 11.3 8.1 -12.8 17 7.5 CALM 0 0 0 0 1023.7 1022.1 0.0
14/04:00am 11.8 8.5 -13.2 16 7.7 CALM 0 0 0 0 1023.3 1021.8 0.0
14/03:30am 11.8 8.5 -13.2 16 7.8 CALM 0 0 0 0 1023.1 1021.6 0.0
14/03:00am 12.6 9.4 -12.5 16 8.0 CALM 0 0 0 0 1022.8 1021.3 0.0
14/02:30am 13.2 10.1 -11.3 17 8.1 CALM 0 0 0 0 1022.8 1021.3 0.0
14/02:00am 13.4 9.1 -11.1 17 8.1 E 6 6 3 3 1023.0 1021.5 0.0
14/01:30am 13.7 10.5 -11.6 16 8.4 CALM 0 0 0 0 1023.1 1021.6 0.0
14/01:00am 13.7 9.3 -12.4 15 8.5 SSE 6 7 3 4 1023.2 1021.7 0.0
14/12:30am 14.6 11.1 -10.9 16 8.7 SSE 2 7 1 4 1023.4 1021.9 0.0
14/12:00am 14.9 11.7 -11.5 15 8.9 CALM 0 0 0 0 1023.7 1022.1 0.0
 
Date/Time
WST
Temp
°C
App
Temp
°C
Dew
Point
°C
Rel
Hum
%
Delta-T
°C
Wind Press
QNH
hPa
Press
MSL
hPa
Rain since
9am
mm
Dir  Spd
km/h
Gust
km/h
Spd
kts
Gust
kts
13/11:30pm 15.7 12.6 -10.0 16 9.1 CALM 0 0 0 0 1023.9 1022.3 0.0
13/11:00pm 16.4 13.3 -10.3 15 9.4 CALM 0 0 0 0 1024.0 1022.4 0.0
13/10:30pm 17.2 14.2 -9.6 15 9.7 CALM 0 0 0 0 1023.9 1022.3 0.0
13/10:00pm 18.2 15.2 -8.8 15 10.0 CALM 0 0 0 0 1024.0 1022.4 0.0
13/09:30pm 19.3 15.3 -7.9 15 10.4 NE 6 7 3 4 1023.9 1022.3 0.0
13/09:00pm 20.9 16.6 -8.5 13 11.3 NNE 7 13 4 7 1024.1 1022.5 0.0
13/08:30pm 21.4 16.7 -9.1 12 11.7 NE 9 11 5 6 1024.0 1022.4 0.0
13/08:00pm 22.0 17.3 -8.7 12 11.9 NE 9 11 5 6 1024.0 1022.4 0.0
13/07:30pm 24.0 19.7 -9.5 10 13.1 NE 7 9 4 5 1023.8 1022.2 0.0
13/07:00pm 27.0 22.5 -7.2 10 14.3 NE 9 11 5 6 1023.4 1021.9 0.0
13/06:30pm 28.2 23.6 -7.6 9 15.1 NE 9 9 5 5 1023.0 1021.5 0.0
13/06:00pm 30.1 25.1 -7.7 8 16.1 ENE 11 13 6 7 1022.6 1021.1 0.0
13/05:30pm 32.3 26.2 -7.8 7 17.4 ENE 17 26 9 14 1022.3 1020.7 0.0
13/05:00pm 33.2 27.9 -7.2 7 17.8 E 13 22 7 12 1021.9 1020.3 0.0
13/04:30pm 33.9 27.9 -6.7 7 18.2 ENE 17 26 9 14 1021.7 1020.1 0.0
13/04:00pm 34.4 28.1 -6.3 7 18.4 E 19 28 10 15 1021.6 1020.0 0.0
13/03:30pm 34.4 27.5 -6.3 7 18.4 ENE 22 35 12 19 1021.8 1020.2 0.0
13/03:00pm 34.8 27.3 -8.0 6 18.9 ENE 24 37 13 20 1021.6 1020.0 0.0
13/02:30pm 35.3 29.6 -7.7 6 19.2 NE 15 24 8 13 1021.9 1020.3 0.0
13/02:00pm 34.5 27.8 -8.2 6 18.7 ENE 20 43 11 23 1022.0 1020.4 0.0
13/01:30pm 34.4 27.9 -8.3 6 18.7 E 19 33 10 18 1022.2 1020.6 0.0
13/01:00pm 35.0 28.5 -7.9 6 19.0 NE 19 33 10 18 1022.7 1021.2 0.0
13/12:30pm 34.1 27.6 -8.5 6 18.6 E 19 35 10 19 1023.4 1021.9 0.0
13/12:00pm 33.2 26.0 -9.2 6 18.1 NE 22 41 12 22 1024.0 1022.4 0.0
13/11:30am 33.2 25.3 -9.2 6 18.2 NE 26 39 14 21 1024.7 1023.2 0.0
13/11:00am 32.6 26.0 -9.6 6 17.8 ENE 19 28 10 15 1025.1 1023.6 0.0
13/10:30am 32.3 25.7 -9.8 6 17.7 ENE 19 30 10 16 1025.4 1023.9 0.0
13/10:00am 30.9 23.8 -13.1 5 17.2 NE 20 28 11 15 1025.8 1024.3 0.0
13/09:30am 29.9 22.4 -13.8 5 16.8 NE 22 32 12 17 1026.0 1024.4 0.0
13/09:00am 29.1 21.2 -14.3 5 16.3 NE 24 33 13 18 1026.4 1024.9 0.0
13/08:30am 27.8 20.6 -15.2 5 15.8 NE 20 32 11 17 1026.4 1024.9 0.0
13/08:00am 27.3 22.3 -13.4 6 15.2 ENE 9 17 5 9 1026.6 1025.1 0.0
13/07:30am 24.8 18.7 -13.3 7 14.0 E 15 20 8 11 1026.6 1025.1 0.0
13/07:00am 23.4 18.1 -12.7 8 13.1 E 11 22 6 12 1026.4 1024.9 0.0
13/06:30am 19.0 14.5 -12.1 11 10.9 ESE 7 9 4 5 1026.0 1024.4 0.0
13/06:00am 16.2 11.0 -11.3 14 9.4 SE 11 15 6 8 1025.7 1024.2 0.0
13/05:30am 16.0 11.1 -11.4 14 9.4 SE 9 11 5 6 1025.4 1023.9 0.0
13/05:00am 16.8 11.5 -11.7 13 9.8 SE 11 13 6 7 1025.2 1023.7 0.0
13/04:30am 18.5 13.6 -11.4 12 10.6 SE 9 11 5 6 1025.1 1023.6 0.0
13/04:00am 18.1 12.5 -11.7 12 10.4 SSE 13 19 7 10 1024.7 1023.2 0.0
13/03:30am 13.5 8.1 -13.4 14 8.5 N 11 13 6 7 1024.0 1022.4 0.0
13/03:00am 12.9 9.3 -13.1 15 8.2 N 2 9 1 5 1024.1 1022.5 0.0
13/02:30am 13.9 10.6 -13.1 14 8.7 CALM 0 0 0 0 1024.1 1022.5 0.0
13/02:00am 13.6 9.2 -13.4 14 8.5 SSE 6 7 3 4 1024.3 1022.7 0.0
13/01:30am 13.6 10.3 -13.4 14 8.6 CALM 0 0 0 0 1024.4 1022.9 0.0
13/01:00am 14.0 10.7 -13.0 14 8.7 CALM 0 0 0 0 1024.5 1023.0 0.0
13/12:30am 14.3 9.9 -13.7 13 8.9 N 6 9 3 5 1024.4 1022.9 0.0
13/12:00am 14.4 9.9 -14.6 12 9.0 NNE 6 7 3 4 1024.4 1022.9 0.0
 
Date/Time
WST
Temp
°C
App
Temp
°C
Dew
Point
°C
Rel
Hum
%
Delta-T
°C
Wind Press
QNH
hPa
Press
MSL
hPa
Rain since
9am
mm
Dir  Spd
km/h
Gust
km/h
Spd
kts
Gust
kts
12/11:30pm 14.5 11.2 -14.5 12 9.1 CALM 0 0 0 0 1024.5 1023.0 0.0
12/11:00pm 15.1 11.8 -14.1 12 9.3 CALM 0 0 0 0 1024.7 1023.2 0.0
12/10:30pm 16.0 12.8 -12.4 13 9.5 CALM 0 0 0 0 1024.9 1023.4 0.0
12/10:00pm 16.9 13.7 -11.7 13 9.8 CALM 0 0 0 0 1025.0 1023.5 0.0
12/09:30pm 17.7 14.4 -13.1 11 10.4 CALM 0 0 0 0 1024.9 1023.4 0.0
12/09:00pm 19.2 15.9 -13.1 10 11.1 CALM 0 0 0 0 1025.0 1023.5 0.0
12/08:30pm 21.6 17.0 -12.6 9 12.3 NNE 7 17 4 9 1025.0 1023.5 0.0
12/08:00pm 22.3 18.1 -10.7 10 12.3 SE 6 7 3 4 1024.9 1023.4 0.0
12/07:30pm 23.6 18.8 -11.1 9 13.1 SE 9 11 5 6 1024.7 1023.2 0.0
12/07:00pm 24.2 19.3 -12.1 8 13.5 E 9 11 5 6 1024.5 1023.0 0.0
12/06:30pm 26.1 21.2 -12.3 7 14.6 E 9 9 5 5 1024.2 1022.6 0.0
12/06:00pm 28.4 23.6 -10.7 7 15.6 E 9 11 5 6 1023.9 1022.3 0.0
12/05:30pm 30.5 24.9 -11.1 6 16.8 E 13 20 7 11 1023.5 1022.0 0.0
12/05:00pm 32.0 25.3 -10.0 6 17.5 E 19 26 10 14 1023.3 1021.8 0.0
12/04:30pm 32.5 27.0 -9.7 6 17.8 E 13 20 7 11 1023.1 1021.6 0.0
12/04:00pm 33.0 27.1 -9.3 6 18.0 E 15 30 8 16 1023.0 1021.5 0.0

Other formats

Comma delimited format used in spreadsheet applications
http://www.bom.gov.au/fwo/IDW60801/IDW60801.94457.axf

JavaScript Object Notation format (JSON) in row-major order
http://www.bom.gov.au/fwo/IDW60801/IDW60801.94457.json

Data quality

Most of these data are generated automatically and are frequently updated. Quality checks on data are not normally performed. It is possible for incorrect values to appear. Refer to information at About Latest Weather Observations and please check the disclaimer before using these data.